sensor_id;sensor_type;location;lat;lon;timestamp;pressure;altitude;pressure_sealevel;temperature
69785;BMP280;14177;51.520;6.764;2023-04-01T00:01:36;99061.13;;;10.89
69785;BMP280;14177;51.520;6.764;2023-04-01T00:04:03;99054.44;;;10.86
69785;BMP280;14177;51.520;6.764;2023-04-01T00:06:31;99058.59;;;10.88
69785;BMP280;14177;51.520;6.764;2023-04-01T00:09:03;99048.31;;;10.87
69785;BMP280;14177;51.520;6.764;2023-04-01T00:11:32;99054.63;;;10.83
69785;BMP280;14177;51.520;6.764;2023-04-01T00:13:59;99053.50;;;10.87
69785;BMP280;14177;51.520;6.764;2023-04-01T00:16:30;99049.44;;;10.83
69785;BMP280;14177;51.520;6.764;2023-04-01T00:19:09;99050.16;;;10.85
69785;BMP280;14177;51.520;6.764;2023-04-01T00:21:36;99056.88;;;10.88
69785;BMP280;14177;51.520;6.764;2023-04-01T00:24:05;99053.16;;;10.92
69785;BMP280;14177;51.520;6.764;2023-04-01T00:26:35;99047.97;;;10.92
69785;BMP280;14177;51.520;6.764;2023-04-01T00:29:02;99060.00;;;10.93
69785;BMP280;14177;51.520;6.764;2023-04-01T00:31:32;99045.44;;;10.91
69785;BMP280;14177;51.520;6.764;2023-04-01T00:34:08;99038.50;;;10.91
69785;BMP280;14177;51.520;6.764;2023-04-01T00:36:36;99039.03;;;10.96
69785;BMP280;14177;51.520;6.764;2023-04-01T00:39:04;99046.00;;;10.96
69785;BMP280;14177;51.520;6.764;2023-04-01T00:41:34;99054.53;;;10.98
69785;BMP280;14177;51.520;6.764;2023-04-01T00:44:24;99053.81;;;10.96
69785;BMP280;14177;51.520;6.764;2023-04-01T00:46:56;99048.03;;;10.91
69785;BMP280;14177;51.520;6.764;2023-04-01T00:49:40;99065.28;;;10.92
69785;BMP280;14177;51.520;6.764;2023-04-01T00:52:15;99047.22;;;10.90
69785;BMP280;14177;51.520;6.764;2023-04-01T00:54:46;99049.06;;;10.88
69785;BMP280;14177;51.520;6.764;2023-04-01T00:59:54;99059.31;;;10.76
69785;BMP280;14177;51.520;6.764;2023-04-01T01:05:38;99040.31;;;10.76
69785;BMP280;14177;51.520;6.764;2023-04-01T01:11:49;99037.78;;;10.74
69785;BMP280;14177;51.520;6.764;2023-04-01T01:17:19;99046.03;;;10.67
69785;BMP280;14177;51.520;6.764;2023-04-01T01:20:19;99033.13;;;10.65
69785;BMP280;14177;51.520;6.764;2023-04-01T01:38:05;99026.06;;;10.83
69785;BMP280;14177;51.520;6.764;2023-04-01T01:40:39;99028.09;;;10.78
69785;BMP280;14177;51.520;6.764;2023-04-01T01:43:12;99021.97;;;10.79
69785;BMP280;14177;51.520;6.764;2023-04-01T01:45:48;99031.97;;;10.71
69785;BMP280;14177;51.520;6.764;2023-04-01T01:48:21;99029.19;;;10.74
69785;BMP280;14177;51.520;6.764;2023-04-01T01:50:51;99031.97;;;10.71
69785;BMP280;14177;51.520;6.764;2023-04-01T01:53:20;99025.28;;;10.67
69785;BMP280;14177;51.520;6.764;2023-04-01T01:55:50;99023.22;;;10.58
69785;BMP280;14177;51.520;6.764;2023-04-01T01:58:33;99041.38;;;10.58
69785;BMP280;14177;51.520;6.764;2023-04-01T02:01:21;99029.78;;;10.63
69785;BMP280;14177;51.520;6.764;2023-04-01T02:03:58;99030.34;;;10.68
69785;BMP280;14177;51.520;6.764;2023-04-01T02:06:32;99037.31;;;10.68
69785;BMP280;14177;51.520;6.764;2023-04-01T02:09:07;99029.19;;;10.74
69785;BMP280;14177;51.520;6.764;2023-04-01T02:12:07;99031.22;;;10.69
69785;BMP280;14177;51.520;6.764;2023-04-01T02:17:27;99034.38;;;10.74
69785;BMP280;14177;51.520;6.764;2023-04-01T02:20:03;99047.38;;;10.74
69785;BMP280;14177;51.520;6.764;2023-04-01T02:22:41;99042.00;;;10.77
69785;BMP280;14177;51.520;6.764;2023-04-01T02:25:17;99044.31;;;10.81
69785;BMP280;14177;51.520;6.764;2023-04-01T02:27:46;99031.25;;;10.83
69785;BMP280;14177;51.520;6.764;2023-04-01T02:30:15;99049.59;;;10.80
69785;BMP280;14177;51.520;6.764;2023-04-01T02:32:44;99043.31;;;10.84
69785;BMP280;14177;51.520;6.764;2023-04-01T02:35:20;99057.97;;;10.85
69785;BMP280;14177;51.520;6.764;2023-04-01T02:37:54;99041.81;;;10.80
69785;BMP280;14177;51.520;6.764;2023-04-01T02:40:23;99050.34;;;10.82
69785;BMP280;14177;51.520;6.764;2023-04-01T02:42:53;99050.53;;;10.79
69785;BMP280;14177;51.520;6.764;2023-04-01T02:45:24;99057.75;;;10.74
69785;BMP280;14177;51.520;6.764;2023-04-01T02:47:58;99055.16;;;10.74
69785;BMP280;14177;51.520;6.764;2023-04-01T02:51:04;99062.94;;;10.74
69785;BMP280;14177;51.520;6.764;2023-04-01T02:53:46;99062.94;;;10.74
69785;BMP280;14177;51.520;6.764;2023-04-01T02:56:26;99068.03;;;10.75
69785;BMP280;14177;51.520;6.764;2023-04-01T02:58:57;99070.91;;;10.71
69785;BMP280;14177;51.520;6.764;2023-04-01T03:01:30;99065.13;;;10.66
69785;BMP280;14177;51.520;6.764;2023-04-01T03:04:04;99074.03;;;10.62
69785;BMP280;14177;51.520;6.764;2023-04-01T03:06:36;99053.25;;;10.62
69785;BMP280;14177;51.520;6.764;2023-04-01T03:09:11;99072.53;;;10.58
69785;BMP280;14177;51.520;6.764;2023-04-01T03:11:47;99067.00;;;10.64
69785;BMP280;14177;51.520;6.764;2023-04-01T03:14:29;99079.22;;;10.62
69785;BMP280;14177;51.520;6.764;2023-04-01T03:17:09;99063.53;;;10.63
69785;BMP280;14177;51.520;6.764;2023-04-01T03:19:39;99067.97;;;10.61
69785;BMP280;14177;51.520;6.764;2023-04-01T03:22:11;99077.28;;;10.65
69785;BMP280;14177;51.520;6.764;2023-04-01T03:24:54;99078.03;;;10.67
69785;BMP280;14177;51.520;6.764;2023-04-01T03:27:36;99071.84;;;10.70
69785;BMP280;14177;51.520;6.764;2023-04-01T03:30:31;99081.38;;;10.69
69785;BMP280;14177;51.520;6.764;2023-04-01T03:33:14;99080.72;;;10.66
69785;BMP280;14177;51.520;6.764;2023-04-01T03:36:05;99083.97;;;10.69
69785;BMP280;14177;51.520;6.764;2023-04-01T03:39:12;99082.38;;;10.67
69785;BMP280;14177;51.520;6.764;2023-04-01T03:42:12;99096.94;;;10.69
69785;BMP280;14177;51.520;6.764;2023-04-01T03:45:07;99089.16;;;10.69
69785;BMP280;14177;51.520;6.764;2023-04-01T03:48:09;99092.59;;;10.70
69785;BMP280;14177;51.520;6.764;2023-04-01T03:51:03;99090.94;;;10.69
69785;BMP280;14177;51.520;6.764;2023-04-01T03:53:47;99089.25;;;10.68
69785;BMP280;14177;51.520;6.764;2023-04-01T03:56:45;99087.75;;;10.64
69785;BMP280;14177;51.520;6.764;2023-04-01T03:59:47;99086.84;;;10.65
69785;BMP280;14177;51.520;6.764;2023-04-01T04:02:39;99085.97;;;10.64
69785;BMP280;14177;51.520;6.764;2023-04-01T04:05:14;99088.50;;;10.66
69785;BMP280;14177;51.520;6.764;2023-04-01T04:07:48;99094.81;;;10.62
69785;BMP280;14177;51.520;6.764;2023-04-01T04:10:16;99095.44;;;10.65
69785;BMP280;14177;51.520;6.764;2023-04-01T04:12:49;99090.94;;;10.69
69785;BMP280;14177;51.520;6.764;2023-04-01T04:15:29;99094.28;;;10.71
69785;BMP280;14177;51.520;6.764;2023-04-01T04:18:01;99098.53;;;10.72
69785;BMP280;14177;51.520;6.764;2023-04-01T04:20:44;99097.63;;;10.73
69785;BMP280;14177;51.520;6.764;2023-04-01T04:23:19;99093.44;;;10.70
69785;BMP280;14177;51.520;6.764;2023-04-01T04:26:34;99100.47;;;10.68
69785;BMP280;14177;51.520;6.764;2023-04-01T04:29:20;99099.28;;;10.74
69785;BMP280;14177;51.520;6.764;2023-04-01T04:31:50;99102.88;;;10.71
69785;BMP280;14177;51.520;6.764;2023-04-01T04:34:26;99110.03;;;10.68
69785;BMP280;14177;51.520;6.764;2023-04-01T04:36:54;99114.03;;;10.73
69785;BMP280;14177;51.520;6.764;2023-04-01T04:39:34;99111.69;;;10.69
69785;BMP280;14177;51.520;6.764;2023-04-01T04:42:02;99110.03;;;10.68
69785;BMP280;14177;51.520;6.764;2023-04-01T04:44:30;99118.81;;;10.65
69785;BMP280;14177;51.520;6.764;2023-04-01T04:47:01;99112.06;;;10.63
69785;BMP280;14177;51.520;6.764;2023-04-01T04:49:29;99119.56;;;10.67
69785;BMP280;14177;51.520;6.764;2023-04-01T04:51:58;99118.75;;;10.67
69785;BMP280;14177;51.520;6.764;2023-04-01T04:54:30;99129.13;;;10.67
69785;BMP280;14177;51.520;6.764;2023-04-01T04:57:11;99130.81;;;10.68
69785;BMP280;14177;51.520;6.764;2023-04-01T04:59:58;99125.03;;;10.63
69785;BMP280;14177;51.520;6.764;2023-04-01T05:02:43;99126.78;;;10.62
69785;BMP280;14177;51.520;6.764;2023-04-01T05:05:11;99122.44;;;10.63
69785;BMP280;14177;51.520;6.764;2023-04-01T05:07:38;99125.03;;;10.63
69785;BMP280;14177;51.520;6.764;2023-04-01T05:10:06;99122.25;;;10.66
69785;BMP280;14177;51.520;6.764;2023-04-01T05:12:34;99123.25;;;10.63
69785;BMP280;14177;51.520;6.764;2023-04-01T05:15:07;99123.19;;;10.65
69785;BMP280;14177;51.520;6.764;2023-04-01T05:17:35;99130.28;;;10.61
69785;BMP280;14177;51.520;6.764;2023-04-01T05:20:04;99132.81;;;10.63
69785;BMP280;14177;51.520;6.764;2023-04-01T05:22:31;99137.09;;;10.64
69785;BMP280;14177;51.520;6.764;2023-04-01T05:24:59;99130.28;;;10.61
69785;BMP280;14177;51.520;6.764;2023-04-01T05:27:27;99147.38;;;10.65
69785;BMP280;14177;51.520;6.764;2023-04-01T05:29:54;99141.53;;;10.62
69785;BMP280;14177;51.520;6.764;2023-04-01T05:32:40;99130.81;;;10.68
69785;BMP280;14177;51.520;6.764;2023-04-01T05:35:07;99146.22;;;10.71
69785;BMP280;14177;51.520;6.764;2023-04-01T05:37:36;99147.31;;;10.67
69785;BMP280;14177;51.520;6.764;2023-04-01T05:40:06;99140.34;;;10.67
69785;BMP280;14177;51.520;6.764;2023-04-01T05:42:41;99147.31;;;10.67
69785;BMP280;14177;51.520;6.764;2023-04-01T05:45:09;99139.00;;;10.60
69785;BMP280;14177;51.520;6.764;2023-04-01T05:47:50;99151.75;;;10.65
69785;BMP280;14177;51.520;6.764;2023-04-01T05:50:21;99155.16;;;10.65
69785;BMP280;14177;51.520;6.764;2023-04-01T05:52:55;99153.59;;;10.63
69785;BMP280;14177;51.520;6.764;2023-04-01T05:56:09;99166.56;;;10.63
69785;BMP280;14177;51.520;6.764;2023-04-01T05:58:52;99155.25;;;10.64
69785;BMP280;14177;51.520;6.764;2023-04-01T06:01:37;99159.53;;;10.65
69785;BMP280;14177;51.520;6.764;2023-04-01T06:04:23;99144.53;;;10.70
69785;BMP280;14177;51.520;6.764;2023-04-01T06:06:53;99162.19;;;10.63
69785;BMP280;14177;51.520;6.764;2023-04-01T06:09:29;99163.28;;;10.59
69785;BMP280;14177;51.520;6.764;2023-04-01T06:18:41;99176.38;;;10.58
69785;BMP280;14177;51.520;6.764;2023-04-01T06:24:51;99166.00;;;10.58
69785;BMP280;14177;51.520;6.764;2023-04-01T06:27:55;99179.88;;;10.57
69785;BMP280;14177;51.520;6.764;2023-04-01T06:30:47;99178.81;;;10.61
69785;BMP280;14177;51.520;6.764;2023-04-01T06:36:52;99187.09;;;10.52
69785;BMP280;14177;51.520;6.764;2023-04-01T06:46:55;99196.06;;;10.46
69785;BMP280;14177;51.520;6.764;2023-04-01T06:50:26;99202.19;;;10.45
69785;BMP280;14177;51.520;6.764;2023-04-01T06:56:19;99201.50;;;10.42
69785;BMP280;14177;51.520;6.764;2023-04-01T07:02:05;99208.53;;;10.40
69785;BMP280;14177;51.520;6.764;2023-04-01T07:04:46;99209.28;;;10.42
69785;BMP280;14177;51.520;6.764;2023-04-01T07:07:24;99205.75;;;10.43
69785;BMP280;14177;51.520;6.764;2023-04-01T07:10:03;99208.34;;;10.43
69785;BMP280;14177;51.520;6.764;2023-04-01T07:12:46;99214.47;;;10.42
69785;BMP280;14177;51.520;6.764;2023-04-01T07:15:33;99209.06;;;10.46
69785;BMP280;14177;51.520;6.764;2023-04-01T07:18:17;99217.50;;;10.50
69785;BMP280;14177;51.520;6.764;2023-04-01T07:20:48;99217.59;;;10.48
69785;BMP280;14177;51.520;6.764;2023-04-01T07:23:28;99227.28;;;10.45
69785;BMP280;14177;51.520;6.764;2023-04-01T07:26:21;99227.44;;;10.42
69785;BMP280;14177;51.520;6.764;2023-04-01T07:29:13;99226.69;;;10.40
69785;BMP280;14177;51.520;6.764;2023-04-01T07:32:25;99231.72;;;10.43
69785;BMP280;14177;51.520;6.764;2023-04-01T07:35:30;99246.38;;;10.44
69785;BMP280;14177;51.520;6.764;2023-04-01T07:47:11;99244.53;;;10.46
69785;BMP280;14177;51.520;6.764;2023-04-01T07:50:26;99257.63;;;10.44
69785;BMP280;14177;51.520;6.764;2023-04-01T07:53:33;99258.53;;;10.43
69785;BMP280;14177;51.520;6.764;2023-04-01T07:56:49;99262.69;;;10.46
69785;BMP280;14177;51.520;6.764;2023-04-01T08:00:12;99262.69;;;10.46
69785;BMP280;14177;51.520;6.764;2023-04-01T08:10:20;99264.53;;;10.44
69785;BMP280;14177;51.520;6.764;2023-04-01T08:22:02;99303.91;;;10.52
69785;BMP280;14177;51.520;6.764;2023-04-01T08:24:45;99303.00;;;10.53
69785;BMP280;14177;51.520;6.764;2023-04-01T08:30:16;99303.84;;;10.53
69785;BMP280;14177;51.520;6.764;2023-04-01T08:33:11;99313.97;;;10.58
69785;BMP280;14177;51.520;6.764;2023-04-01T08:36:34;99312.88;;;10.62
69785;BMP280;14177;51.520;6.764;2023-04-01T08:39:36;99316.41;;;10.61
69785;BMP280;14177;51.520;6.764;2023-04-01T08:43:12;99320.25;;;10.69
69785;BMP280;14177;51.520;6.764;2023-04-01T08:46:00;99323.59;;;10.71
69785;BMP280;14177;51.520;6.764;2023-04-01T08:51:36;99322.47;;;10.77
69785;BMP280;14177;51.520;6.764;2023-04-01T08:57:53;99336.97;;;10.81
69785;BMP280;14177;51.520;6.764;2023-04-01T09:20:46;99349.63;;;11.02
69785;BMP280;14177;51.520;6.764;2023-04-01T09:37:54;99374.75;;;11.17
69785;BMP280;14177;51.520;6.764;2023-04-01T09:44:14;99379.09;;;11.16
69785;BMP280;14177;51.520;6.764;2023-04-01T09:50:27;99396.72;;;11.11
69785;BMP280;14177;51.520;6.764;2023-04-01T09:56:23;99400.47;;;11.21
69785;BMP280;14177;51.520;6.764;2023-04-01T10:06:03;99406.59;;;11.20
69785;BMP280;14177;51.520;6.764;2023-04-01T10:15:00;99413.47;;;11.21
69785;BMP280;14177;51.520;6.764;2023-04-01T10:17:49;99419.38;;;11.25
69785;BMP280;14177;51.520;6.764;2023-04-01T10:27:55;99424.63;;;11.23
69785;BMP280;14177;51.520;6.764;2023-04-01T10:40:13;99438.81;;;11.33
69785;BMP280;14177;51.520;6.764;2023-04-01T10:49:16;99433.09;;;11.42
69785;BMP280;14177;51.520;6.764;2023-04-01T10:55:50;99450.88;;;11.34
69785;BMP280;14177;51.520;6.764;2023-04-01T10:59:07;99458.53;;;11.37
69785;BMP280;14177;51.520;6.764;2023-04-01T11:18:47;99468.91;;;11.37
69785;BMP280;14177;51.520;6.764;2023-04-01T11:21:06;99464.47;;;11.39
69785;BMP280;14177;51.520;6.764;2023-04-01T11:23:59;99474.13;;;11.37
69785;BMP280;14177;51.520;6.764;2023-04-01T11:36:05;99479.16;;;11.40
69785;BMP280;14177;51.520;6.764;2023-04-01T11:39:05;99475.69;;;11.40
69785;BMP280;14177;51.520;6.764;2023-04-01T11:50:27;99507.91;;;11.53
69785;BMP280;14177;51.520;6.764;2023-04-01T11:59:20;99524.72;;;11.63
69785;BMP280;14177;51.520;6.764;2023-04-01T12:06:14;99530.78;;;11.63
69785;BMP280;14177;51.520;6.764;2023-04-01T12:16:29;99546.56;;;11.76
69785;BMP280;14177;51.520;6.764;2023-04-01T12:26:26;99564.16;;;11.86
69785;BMP280;14177;51.520;6.764;2023-04-01T12:29:09;99564.00;;;11.89
69785;BMP280;14177;51.520;6.764;2023-04-01T12:35:25;99572.22;;;11.97
69785;BMP280;14177;51.520;6.764;2023-04-01T12:44:23;99576.44;;;11.84
69785;BMP280;14177;51.520;6.764;2023-04-01T12:50:38;99588.50;;;11.85
69785;BMP280;14177;51.520;6.764;2023-04-01T13:08:35;99617.22;;;11.84
69785;BMP280;14177;51.520;6.764;2023-04-01T13:14:33;99618.38;;;11.78
69785;BMP280;14177;51.520;6.764;2023-04-01T13:17:36;99622.66;;;11.79
69785;BMP280;14177;51.520;6.764;2023-04-01T13:21:19;99627.09;;;11.77
69785;BMP280;14177;51.520;6.764;2023-04-01T13:24:24;99623.91;;;11.72
69785;BMP280;14177;51.520;6.764;2023-04-01T13:27:25;99629.09;;;11.72
69785;BMP280;14177;51.520;6.764;2023-04-01T13:33:38;99635.75;;;11.62
69785;BMP280;14177;51.520;6.764;2023-04-01T13:36:37;99632.53;;;11.57
69785;BMP280;14177;51.520;6.764;2023-04-01T13:39:27;99630.88;;;11.56
69785;BMP280;14177;51.520;6.764;2023-04-01T13:45:25;99649.34;;;11.50
69785;BMP280;14177;51.520;6.764;2023-04-01T13:51:49;99656.09;;;11.54
69785;BMP280;14177;51.520;6.764;2023-04-01T13:55:00;99659.47;;;11.56
69785;BMP280;14177;51.520;6.764;2023-04-01T13:57:52;99655.78;;;11.60
69785;BMP280;14177;51.520;6.764;2023-04-01T14:26:04;99686.28;;;11.74
69785;BMP280;14177;51.520;6.764;2023-04-01T14:37:19;99710.03;;;11.83
69785;BMP280;14177;51.520;6.764;2023-04-01T14:47:11;99713.06;;;11.91
69785;BMP280;14177;51.520;6.764;2023-04-01T14:49:46;99697.41;;;11.93
69785;BMP280;14177;51.520;6.764;2023-04-01T14:52:24;99712.75;;;11.97
69785;BMP280;14177;51.520;6.764;2023-04-01T14:54:54;99706.63;;;11.98
69785;BMP280;14177;51.520;6.764;2023-04-01T14:57:27;99710.91;;;11.99
69785;BMP280;14177;51.520;6.764;2023-04-01T15:00:21;99710.91;;;11.99
69785;BMP280;14177;51.520;6.764;2023-04-01T15:03:39;99719.56;;;12.00
69785;BMP280;14177;51.520;6.764;2023-04-01T15:24:19;99749.81;;;11.85
69785;BMP280;14177;51.520;6.764;2023-04-01T15:29:52;99754.66;;;11.93
69785;BMP280;14177;51.520;6.764;2023-04-01T15:32:49;99757.75;;;11.99
69785;BMP280;14177;51.520;6.764;2023-04-01T15:35:50;99764.50;;;12.03
69785;BMP280;14177;51.520;6.764;2023-04-01T15:43:51;99767.59;;;12.09
69785;BMP280;14177;51.520;6.764;2023-04-01T15:46:44;99774.75;;;12.06
69785;BMP280;14177;51.520;6.764;2023-04-01T15:49:36;99773.97;;;12.04
69785;BMP280;14177;51.520;6.764;2023-04-01T15:52:43;99779.34;;;12.01
69785;BMP280;14177;51.520;6.764;2023-04-01T15:58:20;99781.50;;;11.93
69785;BMP280;14177;51.520;6.764;2023-04-01T16:01:35;99792.06;;;11.90
69785;BMP280;14177;51.520;6.764;2023-04-01T16:04:45;99791.41;;;11.87
69785;BMP280;14177;51.520;6.764;2023-04-01T16:14:26;99811.06;;;11.75
69785;BMP280;14177;51.520;6.764;2023-04-01T16:20:44;99815.97;;;11.64
69785;BMP280;14177;51.520;6.764;2023-04-01T16:26:33;99818.03;;;11.58
69785;BMP280;14177;51.520;6.764;2023-04-01T16:29:32;99820.84;;;11.53
69785;BMP280;14177;51.520;6.764;2023-04-01T16:32:29;99819.28;;;11.49
69785;BMP280;14177;51.520;6.764;2023-04-01T16:35:38;99828.94;;;11.47
69785;BMP280;14177;51.520;6.764;2023-04-01T16:43:50;99833.38;;;11.45
69785;BMP280;14177;51.520;6.764;2023-04-01T16:46:40;99840.31;;;11.45
69785;BMP280;14177;51.520;6.764;2023-04-01T16:51:48;99844.59;;;11.46
69785;BMP280;14177;51.520;6.764;2023-04-01T16:59:51;99860.91;;;11.49
69785;BMP280;14177;51.520;6.764;2023-04-01T17:02:33;99857.53;;;11.47
69785;BMP280;14177;51.520;6.764;2023-04-01T17:21:02;99883.88;;;11.40
69785;BMP280;14177;51.520;6.764;2023-04-01T17:24:31;99895.22;;;11.39
69785;BMP280;14177;51.520;6.764;2023-04-01T17:27:51;99897.91;;;11.37
69785;BMP280;14177;51.520;6.764;2023-04-01T17:31:16;99904.00;;;11.36
69785;BMP280;14177;51.520;6.764;2023-04-01T17:41:47;99924.19;;;11.31
69785;BMP280;14177;51.520;6.764;2023-04-01T17:50:24;99949.63;;;11.25
69785;BMP280;14177;51.520;6.764;2023-04-01T17:53:58;99946.13;;;11.26
69785;BMP280;14177;51.520;6.764;2023-04-01T18:04:22;99959.41;;;11.20
69785;BMP280;14177;51.520;6.764;2023-04-01T18:18:03;99985.44;;;11.18
69785;BMP280;14177;51.520;6.764;2023-04-01T20:36:26;100272.69;;;10.21
69785;BMP280;14177;51.520;6.764;2023-04-01T20:50:57;100309.06;;;9.97
69785;BMP280;14177;51.520;6.764;2023-04-01T20:56:57;100310.84;;;9.95
69785;BMP280;14177;51.520;6.764;2023-04-01T21:08:29;100342.78;;;9.97
69785;BMP280;14177;51.520;6.764;2023-04-01T21:11:31;100338.91;;;9.84
69785;BMP280;14177;51.520;6.764;2023-04-01T21:17:36;100371.91;;;9.80
69785;BMP280;14177;51.520;6.764;2023-04-01T21:21:03;100373.06;;;9.72
69785;BMP280;14177;51.520;6.764;2023-04-01T21:26:52;100390.56;;;9.65
69785;BMP280;14177;51.520;6.764;2023-04-01T21:29:58;100390.06;;;9.55
69785;BMP280;14177;51.520;6.764;2023-04-01T21:32:58;100390.97;;;9.54
69785;BMP280;14177;51.520;6.764;2023-04-01T21:48:01;100428.91;;;9.30
69785;BMP280;14177;51.520;6.764;2023-04-01T21:53:56;100438.75;;;9.19
69785;BMP280;14177;51.520;6.764;2023-04-01T22:06:22;100478.72;;;9.11
69785;BMP280;14177;51.520;6.764;2023-04-01T22:09:32;100481.28;;;9.12
69785;BMP280;14177;51.520;6.764;2023-04-01T22:12:12;100484.84;;;9.08
69785;BMP280;14177;51.520;6.764;2023-04-01T22:15:15;100498.06;;;9.01
69785;BMP280;14177;51.520;6.764;2023-04-01T22:47:52;100562.72;;;8.73
69785;BMP280;14177;51.520;6.764;2023-04-01T22:50:33;100567.91;;;8.73
69785;BMP280;14177;51.520;6.764;2023-04-01T22:53:27;100573.13;;;8.72
69785;BMP280;14177;51.520;6.764;2023-04-01T22:56:05;100586.28;;;8.64
69785;BMP280;14177;51.520;6.764;2023-04-01T23:01:56;100588.16;;;8.58
69785;BMP280;14177;51.520;6.764;2023-04-01T23:04:39;100593.63;;;8.47
69785;BMP280;14177;51.520;6.764;2023-04-01T23:07:56;100600.66;;;8.43
69785;BMP280;14177;51.520;6.764;2023-04-01T23:11:14;100606.03;;;8.34
69785;BMP280;14177;51.520;6.764;2023-04-01T23:14:23;100613.94;;;8.29
69785;BMP280;14177;51.520;6.764;2023-04-01T23:20:49;100632.16;;;8.25
69785;BMP280;14177;51.520;6.764;2023-04-01T23:27:16;100633.97;;;8.20
69785;BMP280;14177;51.520;6.764;2023-04-01T23:29:48;100649.59;;;8.17
69785;BMP280;14177;51.520;6.764;2023-04-01T23:32:26;100655.56;;;8.20
69785;BMP280;14177;51.520;6.764;2023-04-01T23:34:59;100665.16;;;8.14
69785;BMP280;14177;51.520;6.764;2023-04-01T23:37:35;100672.16;;;8.09
69785;BMP280;14177;51.520;6.764;2023-04-01T23:40:26;100667.91;;;8.06
69785;BMP280;14177;51.520;6.764;2023-04-01T23:43:45;100675.63;;;8.08
69785;BMP280;14177;51.520;6.764;2023-04-01T23:46:27;100689.38;;;8.10
69785;BMP280;14177;51.520;6.764;2023-04-01T23:49:46;100690.25;;;8.09
69785;BMP280;14177;51.520;6.764;2023-04-01T23:52:43;100710.09;;;8.10
69785;BMP280;14177;51.520;6.764;2023-04-01T23:55:25;100706.72;;;8.06
